sensor_id;sensor_type;location;lat;lon;timestamp;pressure;altitude;pressure_sealevel;temperature;humidity
77159;BME280;66129;45.890;13.714;2023-12-28T00:01:47;102243.25;;;7.82;100.00
77159;BME280;66129;45.890;13.714;2023-12-28T00:04:12;102251.88;;;7.84;100.00
77159;BME280;66129;45.890;13.714;2023-12-28T00:06:38;102247.50;;;7.82;100.00
77159;BME280;66129;45.890;13.714;2023-12-28T00:09:03;102243.91;;;7.78;100.00
77159;BME280;66129;45.890;13.714;2023-12-28T00:11:29;102234.00;;;7.84;100.00
77159;BME280;66129;45.890;13.714;2023-12-28T00:13:54;102234.97;;;7.86;100.00
77159;BME280;66129;45.890;13.714;2023-12-28T00:16:20;102243.34;;;7.84;100.00
77159;BME280;66129;45.890;13.714;2023-12-28T00:18:45;102239.66;;;7.79;100.00
77159;BME280;66129;45.890;13.714;2023-12-28T00:21:11;102243.25;;;7.82;100.00
77159;BME280;66129;45.890;13.714;2023-12-28T00:23:36;102244.03;;;7.81;100.00
77159;BME280;66129;45.890;13.714;2023-12-28T00:26:02;102241.50;;;7.81;100.00
77159;BME280;66129;45.890;13.714;2023-12-28T00:28:27;102241.59;;;7.83;100.00
77159;BME280;66129;45.890;13.714;2023-12-28T00:30:53;102245.28;;;7.88;100.00
77159;BME280;66129;45.890;13.714;2023-12-28T00:33:18;102251.81;;;7.83;100.00
77159;BME280;66129;45.890;13.714;2023-12-28T00:35:44;102247.88;;;7.73;100.00
77159;BME280;66129;45.890;13.714;2023-12-28T00:38:09;102243.47;;;7.71;100.00
77159;BME280;66129;45.890;13.714;2023-12-28T00:40:35;102243.56;;;7.72;100.00
77159;BME280;66129;45.890;13.714;2023-12-28T00:43:00;102244.59;;;7.76;100.00
77159;BME280;66129;45.890;13.714;2023-12-28T00:45:26;102249.47;;;7.71;100.00
77159;BME280;66129;45.890;13.714;2023-12-28T00:47:51;102245.84;;;7.68;100.00
77159;BME280;66129;45.890;13.714;2023-12-28T00:50:17;102250.16;;;7.69;100.00
77159;BME280;66129;45.890;13.714;2023-12-28T00:52:43;102252.56;;;7.66;100.00
77159;BME280;66129;45.890;13.714;2023-12-28T00:55:09;102246.53;;;7.64;100.00
77159;BME280;66129;45.890;13.714;2023-12-28T00:57:35;102245.00;;;7.68;100.00
77159;BME280;66129;45.890;13.714;2023-12-28T01:00:00;102250.09;;;7.68;100.00
77159;BME280;66129;45.890;13.714;2023-12-28T01:02:27;102253.28;;;7.64;100.00
77159;BME280;66129;45.890;13.714;2023-12-28T01:04:52;102243.63;;;7.58;100.00
77159;BME280;66129;45.890;13.714;2023-12-28T01:07:18;102245.28;;;7.58;100.00
77159;BME280;66129;45.890;13.714;2023-12-28T01:09:43;102248.72;;;7.58;100.00
77159;BME280;66129;45.890;13.714;2023-12-28T01:12:09;102254.44;;;7.54;100.00
77159;BME280;66129;45.890;13.714;2023-12-28T01:14:34;102243.09;;;7.49;100.00
77159;BME280;66129;45.890;13.714;2023-12-28T01:17:01;102244.81;;;7.49;100.00
77159;BME280;66129;45.890;13.714;2023-12-28T01:19:26;102253.56;;;7.54;100.00
77159;BME280;66129;45.890;13.714;2023-12-28T01:21:52;102249.69;;;7.60;100.00
77159;BME280;66129;45.890;13.714;2023-12-28T01:24:17;102250.47;;;7.59;100.00
77159;BME280;66129;45.890;13.714;2023-12-28T01:26:43;102252.25;;;7.60;100.00
77159;BME280;66129;45.890;13.714;2023-12-28T01:29:10;102262.63;;;7.63;100.00
77159;BME280;66129;45.890;13.714;2023-12-28T01:31:35;102261.38;;;7.57;100.00
77159;BME280;66129;45.890;13.714;2023-12-28T01:34:01;102259.97;;;7.62;100.00
77159;BME280;66129;45.890;13.714;2023-12-28T01:36:26;102261.09;;;7.67;100.00
77159;BME280;66129;45.890;13.714;2023-12-28T01:38:54;102256.44;;;7.60;100.00
77159;BME280;66129;45.890;13.714;2023-12-28T01:41:20;102245.78;;;7.67;100.00
77159;BME280;66129;45.890;13.714;2023-12-28T01:43:45;102244.03;;;7.66;100.00
77159;BME280;66129;45.890;13.714;2023-12-28T01:46:18;102247.38;;;7.65;100.00
77159;BME280;66129;45.890;13.714;2023-12-28T01:48:46;102252.47;;;7.65;100.00
77159;BME280;66129;45.890;13.714;2023-12-28T01:51:14;102241.94;;;7.59;100.00
77159;BME280;66129;45.890;13.714;2023-12-28T01:53:41;102244.03;;;7.66;100.00
77159;BME280;66129;45.890;13.714;2023-12-28T01:56:07;102250.97;;;7.68;100.00
77159;BME280;66129;45.890;13.714;2023-12-28T01:58:35;102248.34;;;7.67;100.00
77159;BME280;66129;45.890;13.714;2023-12-28T02:01:00;102245.56;;;7.62;100.00
77159;BME280;66129;45.890;13.714;2023-12-28T02:03:27;102252.56;;;7.66;100.00
77159;BME280;66129;45.890;13.714;2023-12-28T02:05:52;102250.09;;;7.68;100.00
77159;BME280;66129;45.890;13.714;2023-12-28T02:08:18;102247.44;;;7.66;100.00
77159;BME280;66129;45.890;13.714;2023-12-28T02:10:44;102240.22;;;7.73;100.00
77159;BME280;66129;45.890;13.714;2023-12-28T02:13:09;102242.00;;;7.74;100.00
77159;BME280;66129;45.890;13.714;2023-12-28T02:15:35;102232.47;;;7.72;100.00
77159;BME280;66129;45.890;13.714;2023-12-28T02:18:05;102239.09;;;7.68;100.00
77159;BME280;66129;45.890;13.714;2023-12-28T02:20:35;102230.31;;;7.64;100.00
77159;BME280;66129;45.890;13.714;2023-12-28T02:23:01;102230.53;;;7.68;100.00
77159;BME280;66129;45.890;13.714;2023-12-28T02:25:26;102229.69;;;7.68;100.00
77159;BME280;66129;45.890;13.714;2023-12-28T02:27:52;102225.44;;;7.68;100.00
77159;BME280;66129;45.890;13.714;2023-12-28T02:30:22;102217.38;;;7.61;100.00
77159;BME280;66129;45.890;13.714;2023-12-28T02:38:10;102212.44;;;7.64;100.00
77159;BME280;66129;45.890;13.714;2023-12-28T02:40:38;102207.19;;;7.61;100.00
77159;BME280;66129;45.890;13.714;2023-12-28T02:43:05;102204.63;;;7.61;100.00
77159;BME280;66129;45.890;13.714;2023-12-28T02:45:31;102194.63;;;7.49;100.00
77159;BME280;66129;45.890;13.714;2023-12-28T02:47:56;102199.63;;;7.62;100.00
77159;BME280;66129;45.890;13.714;2023-12-28T02:50:22;102202.69;;;7.57;100.00
77159;BME280;66129;45.890;13.714;2023-12-28T02:52:47;102191.28;;;7.50;100.00
77159;BME280;66129;45.890;13.714;2023-12-28T02:55:13;102198.22;;;7.53;100.00
77159;BME280;66129;45.890;13.714;2023-12-28T02:57:38;102198.22;;;7.53;100.00
77159;BME280;66129;45.890;13.714;2023-12-28T03:00:06;102191.84;;;7.45;100.00
77159;BME280;66129;45.890;13.714;2023-12-28T03:02:34;102185.78;;;7.43;100.00
77159;BME280;66129;45.890;13.714;2023-12-28T03:05:00;102188.50;;;7.46;100.00
77159;BME280;66129;45.890;13.714;2023-12-28T03:07:26;102194.47;;;7.46;100.00
77159;BME280;66129;45.890;13.714;2023-12-28T03:09:51;102190.41;;;7.50;100.00
77159;BME280;66129;45.890;13.714;2023-12-28T03:12:17;102187.84;;;7.50;100.00
77159;BME280;66129;45.890;13.714;2023-12-28T03:14:42;102194.63;;;7.49;100.00
77159;BME280;66129;45.890;13.714;2023-12-28T03:17:08;102181.81;;;7.48;100.00
77159;BME280;66129;45.890;13.714;2023-12-28T03:19:36;102178.31;;;7.46;100.00
77159;BME280;66129;45.890;13.714;2023-12-28T03:22:01;102179.34;;;7.49;100.00
77159;BME280;66129;45.890;13.714;2023-12-28T03:24:27;102173.88;;;7.43;100.00
77159;BME280;66129;45.890;13.714;2023-12-28T03:26:52;102176.63;;;7.46;100.00
77159;BME280;66129;45.890;13.714;2023-12-28T03:29:18;102167.44;;;7.50;100.00
77159;BME280;66129;45.890;13.714;2023-12-28T03:31:43;102163.28;;;7.52;100.00
77159;BME280;66129;45.890;13.714;2023-12-28T03:34:08;102167.72;;;7.54;100.00
77159;BME280;66129;45.890;13.714;2023-12-28T03:36:34;102177.81;;;7.53;100.00
77159;BME280;66129;45.890;13.714;2023-12-28T03:38:59;102167.31;;;7.47;100.00
77159;BME280;66129;45.890;13.714;2023-12-28T03:41:25;102165.53;;;7.46;100.00
77159;BME280;66129;45.890;13.714;2023-12-28T03:43:50;102163.84;;;7.46;100.00
77159;BME280;66129;45.890;13.714;2023-12-28T03:46:16;102166.50;;;7.48;100.00
77159;BME280;66129;45.890;13.714;2023-12-28T03:48:41;102168.88;;;7.45;100.00
77159;BME280;66129;45.890;13.714;2023-12-28T03:51:07;102165.53;;;7.46;100.00
77159;BME280;66129;45.890;13.714;2023-12-28T03:53:32;102163.63;;;7.42;100.00
77159;BME280;66129;45.890;13.714;2023-12-28T03:55:58;102160.63;;;7.49;100.00
77159;BME280;66129;45.890;13.714;2023-12-28T03:58:24;102165.84;;;7.52;100.00
77159;BME280;66129;45.890;13.714;2023-12-28T04:00:49;102170.16;;;7.53;100.00
77159;BME280;66129;45.890;13.714;2023-12-28T04:03:15;102170.88;;;7.50;100.00
77159;BME280;66129;45.890;13.714;2023-12-28T04:05:40;102163.63;;;7.42;100.00
77159;BME280;66129;45.890;13.714;2023-12-28T04:08:06;102160.91;;;7.55;100.00
77159;BME280;66129;45.890;13.714;2023-12-28T04:10:33;102167.78;;;7.56;100.00
77159;BME280;66129;45.890;13.714;2023-12-28T04:12:59;102164.03;;;7.49;100.00
77159;BME280;66129;45.890;13.714;2023-12-28T04:15:28;102170.00;;;7.50;100.00
77159;BME280;66129;45.890;13.714;2023-12-28T04:17:53;102168.88;;;7.45;100.00
77159;BME280;66129;45.890;13.714;2023-12-28T04:20:19;102169.41;;;7.39;100.00
77159;BME280;66129;45.890;13.714;2023-12-28T04:22:44;102174.06;;;7.46;100.00
77159;BME280;66129;45.890;13.714;2023-12-28T04:25:10;102172.53;;;7.50;100.00
77159;BME280;66129;45.890;13.714;2023-12-28T04:27:36;102173.66;;;7.55;100.00
77159;BME280;66129;45.890;13.714;2023-12-28T04:30:02;102176.84;;;7.51;100.00
77159;BME280;66129;45.890;13.714;2023-12-28T04:32:27;102167.44;;;7.50;100.00
77159;BME280;66129;45.890;13.714;2023-12-28T04:34:53;102166.34;;;7.45;100.00
77159;BME280;66129;45.890;13.714;2023-12-28T04:37:21;102172.13;;;7.42;100.00
77159;BME280;66129;45.890;13.714;2023-12-28T04:39:46;102170.13;;;7.37;100.00
77159;BME280;66129;45.890;13.714;2023-12-28T04:42:12;102176.19;;;7.39;100.00
77159;BME280;66129;45.890;13.714;2023-12-28T04:44:40;102177.16;;;7.41;100.00
77159;BME280;66129;45.890;13.714;2023-12-28T04:47:06;102166.25;;;7.43;100.00
77159;BME280;66129;45.890;13.714;2023-12-28T04:49:31;102176.44;;;7.43;100.00
77159;BME280;66129;45.890;13.714;2023-12-28T04:51:57;102185.94;;;7.46;100.00
77159;BME280;66129;45.890;13.714;2023-12-28T04:54:23;102185.78;;;7.43;100.00
77159;BME280;66129;45.890;13.714;2023-12-28T04:56:48;102183.06;;;7.40;100.00
77159;BME280;66129;45.890;13.714;2023-12-28T04:59:14;102176.28;;;7.40;100.00
77159;BME280;66129;45.890;13.714;2023-12-28T05:01:43;102184.09;;;7.43;100.00
77159;BME280;66129;45.890;13.714;2023-12-28T05:04:09;102191.69;;;7.42;100.00
77159;BME280;66129;45.890;13.714;2023-12-28T05:06:34;102180.69;;;7.43;100.00
77159;BME280;66129;45.890;13.714;2023-12-28T05:09:00;102181.72;;;7.46;100.00
77159;BME280;66129;45.890;13.714;2023-12-28T05:11:26;102181.59;;;7.59;100.00
77159;BME280;66129;45.890;13.714;2023-12-28T05:13:52;102177.00;;;7.54;100.00
77159;BME280;66129;45.890;13.714;2023-12-28T05:16:17;102188.69;;;7.49;100.00
77159;BME280;66129;45.890;13.714;2023-12-28T05:18:43;102194.25;;;7.58;100.00
77159;BME280;66129;45.890;13.714;2023-12-28T05:21:08;102192.25;;;7.52;100.00
77159;BME280;66129;45.890;13.714;2023-12-28T05:23:34;102194.88;;;7.54;100.00
77159;BME280;66129;45.890;13.714;2023-12-28T05:25:59;102192.94;;;7.50;100.00
77159;BME280;66129;45.890;13.714;2023-12-28T05:28:25;102189.13;;;7.42;100.00
77159;BME280;66129;45.890;13.714;2023-12-28T05:30:50;102187.53;;;7.44;100.00
77159;BME280;66129;45.890;13.714;2023-12-28T05:33:16;102189.13;;;7.42;100.00
77159;BME280;66129;45.890;13.714;2023-12-28T05:35:41;102195.25;;;7.45;100.00
77159;BME280;66129;45.890;13.714;2023-12-28T05:38:07;102194.91;;;7.39;100.00
77159;BME280;66129;45.890;13.714;2023-12-28T05:40:32;102197.47;;;7.39;100.00
77159;BME280;66129;45.890;13.714;2023-12-28T05:42:58;102203.53;;;7.41;100.00
77159;BME280;66129;45.890;13.714;2023-12-28T05:45:23;102203.53;;;7.41;100.00
77159;BME280;66129;45.890;13.714;2023-12-28T05:47:49;102198.09;;;7.35;100.00
77159;BME280;66129;45.890;13.714;2023-12-28T05:50:15;102194.50;;;7.32;100.00
77159;BME280;66129;45.890;13.714;2023-12-28T05:52:40;102199.56;;;7.46;100.00
77159;BME280;66129;45.890;13.714;2023-12-28T05:55:06;102203.88;;;7.47;100.00
77159;BME280;66129;45.890;13.714;2023-12-28T05:57:32;102208.91;;;7.46;100.00
77159;BME280;66129;45.890;13.714;2023-12-28T05:59:57;102200.28;;;7.44;100.00
77159;BME280;66129;45.890;13.714;2023-12-28T06:02:23;102192.38;;;7.39;100.00
77159;BME280;66129;45.890;13.714;2023-12-28T06:04:48;102205.28;;;7.42;100.00
77159;BME280;66129;45.890;13.714;2023-12-28T06:07:14;102202.34;;;7.35;100.00
77159;BME280;66129;45.890;13.714;2023-12-28T06:09:39;102199.53;;;7.30;100.00
77159;BME280;66129;45.890;13.714;2023-12-28T06:12:05;102206.66;;;7.36;100.00
77159;BME280;66129;45.890;13.714;2023-12-28T06:14:33;102195.03;;;7.41;100.00
77159;BME280;66129;45.890;13.714;2023-12-28T06:16:58;102206.97;;;7.42;100.00
77159;BME280;66129;45.890;13.714;2023-12-28T06:19:24;102194.06;;;7.39;100.00
77159;BME280;66129;45.890;13.714;2023-12-28T06:21:50;102195.88;;;7.41;100.00
77159;BME280;66129;45.890;13.714;2023-12-28T06:24:15;102195.81;;;7.40;100.00
77159;BME280;66129;45.890;13.714;2023-12-28T06:26:42;102197.66;;;7.42;100.00
77159;BME280;66129;45.890;13.714;2023-12-28T06:29:08;102199.66;;;7.48;100.00
77159;BME280;66129;45.890;13.714;2023-12-28T06:31:34;102206.59;;;7.50;100.00
77159;BME280;66129;45.890;13.714;2023-12-28T06:34:05;102210.56;;;7.45;100.00
77159;BME280;66129;45.890;13.714;2023-12-28T06:36:31;102202.81;;;7.58;100.00
77159;BME280;66129;45.890;13.714;2023-12-28T06:38:57;102206.22;;;7.59;100.00
77159;BME280;66129;45.890;13.714;2023-12-28T06:41:23;102203.16;;;7.50;100.00
77159;BME280;66129;45.890;13.714;2023-12-28T06:43:49;102204.91;;;7.51;100.00
77159;BME280;66129;45.890;13.714;2023-12-28T06:46:15;102208.00;;;7.45;100.00
77159;BME280;66129;45.890;13.714;2023-12-28T06:48:40;102216.09;;;7.53;100.00
77159;BME280;66129;45.890;13.714;2023-12-28T06:51:06;102212.09;;;7.42;100.00
77159;BME280;66129;45.890;13.714;2023-12-28T06:53:32;102201.78;;;7.40;100.00
77159;BME280;66129;45.890;13.714;2023-12-28T06:55:58;102214.00;;;7.46;100.00
77159;BME280;66129;45.890;13.714;2023-12-28T06:58:23;102213.66;;;7.40;100.00
77159;BME280;66129;45.890;13.714;2023-12-28T07:00:49;102220.34;;;7.38;100.00
77159;BME280;66129;45.890;13.714;2023-12-28T07:03:14;102207.78;;;7.41;100.00
77159;BME280;66129;45.890;13.714;2023-12-28T07:05:40;102196.38;;;7.34;100.00
77159;BME280;66129;45.890;13.714;2023-12-28T07:08:06;102206.81;;;7.39;100.00
77159;BME280;66129;45.890;13.714;2023-12-28T07:10:31;102196.88;;;7.29;100.00
77159;BME280;66129;45.890;13.714;2023-12-28T07:12:56;102207.50;;;7.36;100.00
77159;BME280;66129;45.890;13.714;2023-12-28T07:15:22;102211.91;;;7.39;100.00
77159;BME280;66129;45.890;13.714;2023-12-28T07:17:47;102208.75;;;7.43;100.00
77159;BME280;66129;45.890;13.714;2023-12-28T07:20:13;102201.88;;;7.42;100.00
77159;BME280;66129;45.890;13.714;2023-12-28T07:22:38;102195.03;;;7.41;100.00
77159;BME280;66129;45.890;13.714;2023-12-28T07:25:07;102201.31;;;7.47;100.00
77159;BME280;66129;45.890;13.714;2023-12-28T07:27:35;102208.19;;;7.48;100.00
77159;BME280;66129;45.890;13.714;2023-12-28T07:30:02;102207.16;;;7.45;100.00
77159;BME280;66129;45.890;13.714;2023-12-28T07:32:28;102210.66;;;7.47;100.00
77159;BME280;66129;45.890;13.714;2023-12-28T07:34:54;102195.38;;;7.47;100.00
77159;BME280;66129;45.890;13.714;2023-12-28T07:37:20;102206.59;;;7.50;100.00
77159;BME280;66129;45.890;13.714;2023-12-28T07:39:46;102204.28;;;7.55;100.00
77159;BME280;66129;45.890;13.714;2023-12-28T07:42:13;102208.59;;;7.56;100.00
77159;BME280;66129;45.890;13.714;2023-12-28T07:44:38;102199.97;;;7.54;100.00
77159;BME280;66129;45.890;13.714;2023-12-28T07:47:04;102203.31;;;7.53;100.00
77159;BME280;66129;45.890;13.714;2023-12-28T07:49:30;102196.31;;;7.49;100.00
77159;BME280;66129;45.890;13.714;2023-12-28T07:51:56;102209.56;;;7.58;100.00
77159;BME280;66129;45.890;13.714;2023-12-28T07:54:22;102204.22;;;7.53;100.00
77159;BME280;66129;45.890;13.714;2023-12-28T07:56:47;102212.09;;;7.58;100.00
77159;BME280;66129;45.890;13.714;2023-12-28T07:59:13;102207.56;;;7.52;100.00
77159;BME280;66129;45.890;13.714;2023-12-28T08:01:38;102207.63;;;7.54;100.00
77159;BME280;66129;45.890;13.714;2023-12-28T08:04:04;102207.00;;;7.58;100.00
77159;BME280;66129;45.890;13.714;2023-12-28T08:06:29;102216.75;;;7.65;100.00
77159;BME280;66129;45.890;13.714;2023-12-28T08:09:01;102212.00;;;7.70;100.00
77159;BME280;66129;45.890;13.714;2023-12-28T08:11:27;102212.84;;;7.71;100.00
77159;BME280;66129;45.890;13.714;2023-12-28T08:13:53;102204.91;;;7.81;100.00
77159;BME280;66129;45.890;13.714;2023-12-28T08:16:19;102203.78;;;7.76;100.00
77159;BME280;66129;45.890;13.714;2023-12-28T08:18:44;102220.69;;;7.74;100.00
77159;BME280;66129;45.890;13.714;2023-12-28T08:21:10;102215.34;;;7.69;100.00
77159;BME280;66129;45.890;13.714;2023-12-28T08:23:35;102218.91;;;7.73;100.00
77159;BME280;66129;45.890;13.714;2023-12-28T08:26:01;102213.53;;;7.83;100.00
77159;BME280;66129;45.890;13.714;2023-12-28T08:28:26;102216.38;;;7.73;100.00
77159;BME280;66129;45.890;13.714;2023-12-28T08:30:52;102215.41;;;7.71;100.00
77159;BME280;66129;45.890;13.714;2023-12-28T08:33:17;102222.25;;;7.72;100.00
77159;BME280;66129;45.890;13.714;2023-12-28T08:35:43;102223.78;;;7.68;100.00
77159;BME280;66129;45.890;13.714;2023-12-28T08:38:08;102236.72;;;7.71;100.00
77159;BME280;66129;45.890;13.714;2023-12-28T08:40:34;102240.28;;;7.75;100.00
77159;BME280;66129;45.890;13.714;2023-12-28T08:43:00;102239.75;;;7.80;100.00
77159;BME280;66129;45.890;13.714;2023-12-28T08:45:25;102240.81;;;7.84;100.00
77159;BME280;66129;45.890;13.714;2023-12-28T08:47:50;102244.03;;;7.81;100.00
77159;BME280;66129;45.890;13.714;2023-12-28T08:50:16;102256.91;;;7.83;100.00
77159;BME280;66129;45.890;13.714;2023-12-28T08:52:41;102258.56;;;7.82;100.00
77159;BME280;66129;45.890;13.714;2023-12-28T08:55:07;102262.19;;;7.86;100.00
77159;BME280;66129;45.890;13.714;2023-12-28T08:57:33;102252.66;;;7.83;100.00
77159;BME280;66129;45.890;13.714;2023-12-28T08:59:58;102269.13;;;7.88;100.00
77159;BME280;66129;45.890;13.714;2023-12-28T09:02:28;102266.50;;;7.87;100.00
77159;BME280;66129;45.890;13.714;2023-12-28T09:04:53;102271.78;;;7.90;100.00
77159;BME280;66129;45.890;13.714;2023-12-28T09:07:19;102247.28;;;7.93;100.00
77159;BME280;66129;45.890;13.714;2023-12-28T09:09:45;102254.00;;;8.07;100.00
77159;BME280;66129;45.890;13.714;2023-12-28T09:12:11;102257.88;;;8.01;100.00
77159;BME280;66129;45.890;13.714;2023-12-28T09:14:37;102259.63;;;8.02;100.00
77159;BME280;66129;45.890;13.714;2023-12-28T09:17:03;102260.13;;;8.11;100.00
77159;BME280;66129;45.890;13.714;2023-12-28T09:19:28;102255.19;;;8.14;100.00
77159;BME280;66129;45.890;13.714;2023-12-28T09:21:53;102265.31;;;8.12;100.00
77159;BME280;66129;45.890;13.714;2023-12-28T09:24:19;102265.47;;;8.15;100.00
77159;BME280;66129;45.890;13.714;2023-12-28T09:26:44;102250.34;;;8.18;100.00
77159;BME280;66129;45.890;13.714;2023-12-28T09:29:10;102257.31;;;8.21;100.00
77159;BME280;66129;45.890;13.714;2023-12-28T09:31:37;102263.91;;;8.17;100.00
77159;BME280;66129;45.890;13.714;2023-12-28T09:34:03;102252.91;;;8.18;100.00
77159;BME280;66129;45.890;13.714;2023-12-28T09:36:30;102246.13;;;8.19;100.00
77159;BME280;66129;45.890;13.714;2023-12-28T09:38:56;102253.06;;;8.21;100.00
77159;BME280;66129;45.890;13.714;2023-12-28T09:41:25;102250.50;;;8.21;100.00
77159;BME280;66129;45.890;13.714;2023-12-28T09:44:11;102251.47;;;8.23;100.00
77159;BME280;66129;45.890;13.714;2023-12-28T09:46:36;102243.00;;;8.24;100.00
77159;BME280;66129;45.890;13.714;2023-12-28T09:49:04;102244.59;;;8.22;100.00
77159;BME280;66129;45.890;13.714;2023-12-28T09:51:30;102239.34;;;8.19;100.00
77159;BME280;66129;45.890;13.714;2023-12-28T09:53:56;102238.06;;;8.27;100.00
77159;BME280;66129;45.890;13.714;2023-12-28T09:56:22;102225.47;;;8.30;100.00
77159;BME280;66129;45.890;13.714;2023-12-28T09:58:50;102229.19;;;8.37;100.00
77159;BME280;66129;45.890;13.714;2023-12-28T10:01:17;102232.06;;;8.43;100.00
77159;BME280;66129;45.890;13.714;2023-12-28T10:03:43;102226.16;;;8.44;100.00
77159;BME280;66129;45.890;13.714;2023-12-28T10:06:08;102223.78;;;8.47;100.00
77159;BME280;66129;45.890;13.714;2023-12-28T10:08:35;102218.72;;;8.48;100.00
77159;BME280;66129;45.890;13.714;2023-12-28T10:11:02;102204.44;;;8.52;100.00
77159;BME280;66129;45.890;13.714;2023-12-28T10:13:28;102198.47;;;8.69;100.00
77159;BME280;66129;45.890;13.714;2023-12-28T10:15:58;102199.50;;;8.72;100.00
77159;BME280;66129;45.890;13.714;2023-12-28T10:18:24;102194.09;;;8.66;100.00
77159;BME280;66129;45.890;13.714;2023-12-28T10:20:50;102195.06;;;8.68;100.00
77159;BME280;66129;45.890;13.714;2023-12-28T10:23:20;102197.63;;;8.68;100.00
77159;BME280;66129;45.890;13.714;2023-12-28T10:25:46;102196.72;;;8.68;100.00
77159;BME280;66129;45.890;13.714;2023-12-28T10:28:13;102182.84;;;8.63;100.00
77159;BME280;66129;45.890;13.714;2023-12-28T10:30:39;102191.81;;;8.72;100.00
77159;BME280;66129;45.890;13.714;2023-12-28T10:33:07;102188.41;;;8.72;100.00
77159;BME280;66129;45.890;13.714;2023-12-28T10:35:33;102195.50;;;8.77;100.00
77159;BME280;66129;45.890;13.714;2023-12-28T10:38:02;102203.31;;;8.80;100.00
77159;BME280;66129;45.890;13.714;2023-12-28T10:40:29;102205.97;;;8.82;100.00
77159;BME280;66129;45.890;13.714;2023-12-28T10:42:58;102213.38;;;8.77;100.00
77159;BME280;66129;45.890;13.714;2023-12-28T10:45:29;102204.91;;;8.78;100.00
77159;BME280;66129;45.890;13.714;2023-12-28T10:48:12;102208.44;;;8.80;100.00
77159;BME280;66129;45.890;13.714;2023-12-28T10:58:34;102200.84;;;8.82;100.00
77159;BME280;66129;45.890;13.714;2023-12-28T11:01:04;102199.09;;;8.81;100.00
77159;BME280;66129;45.890;13.714;2023-12-28T11:03:37;102189.81;;;8.82;100.00
77159;BME280;66129;45.890;13.714;2023-12-28T11:06:06;102196.97;;;8.89;100.00
77159;BME280;66129;45.890;13.714;2023-12-28T11:08:32;102181.56;;;8.88;100.00
77159;BME280;66129;45.890;13.714;2023-12-28T11:11:00;102188.00;;;8.97;100.00
77159;BME280;66129;45.890;13.714;2023-12-28T11:13:30;102189.00;;;9.01;100.00
77159;BME280;66129;45.890;13.714;2023-12-28T11:15:58;102182.06;;;8.98;100.00
77159;BME280;66129;45.890;13.714;2023-12-28T11:18:25;102181.34;;;9.01;100.00
77159;BME280;66129;45.890;13.714;2023-12-28T11:20:53;102179.72;;;9.03;100.00
77159;BME280;66129;45.890;13.714;2023-12-28T11:23:19;102177.03;;;9.00;100.00
77159;BME280;66129;45.890;13.714;2023-12-28T11:25:45;102177.41;;;9.07;100.00
77159;BME280;66129;45.890;13.714;2023-12-28T11:28:11;102155.09;;;9.05;100.00
77159;BME280;66129;45.890;13.714;2023-12-28T11:30:38;102170.91;;;9.14;100.00
77159;BME280;66129;45.890;13.714;2023-12-28T11:33:06;102166.59;;;9.13;100.00
77159;BME280;66129;45.890;13.714;2023-12-28T11:35:39;102166.53;;;9.11;100.00
77159;BME280;66129;45.890;13.714;2023-12-28T11:38:06;102164.91;;;9.13;100.00
77159;BME280;66129;45.890;13.714;2023-12-28T11:40:45;102158.06;;;9.12;100.00
77159;BME280;66129;45.890;13.714;2023-12-28T11:43:20;102157.16;;;9.12;100.00
77159;BME280;66129;45.890;13.714;2023-12-28T11:45:56;102155.56;;;9.14;100.00
77159;BME280;66129;45.890;13.714;2023-12-28T11:48:26;102159.72;;;9.12;100.00
77159;BME280;66129;45.890;13.714;2023-12-28T11:51:00;102163.16;;;9.12;100.00
77159;BME280;66129;45.890;13.714;2023-12-28T11:53:27;102144.22;;;9.09;100.00
77159;BME280;66129;45.890;13.714;2023-12-28T11:55:59;102145.31;;;9.14;100.00
77159;BME280;66129;45.890;13.714;2023-12-28T11:58:26;102144.50;;;9.15;100.00
77159;BME280;66129;45.890;13.714;2023-12-28T12:00:52;102139.44;;;9.16;100.00
77159;BME280;66129;45.890;13.714;2023-12-28T12:03:17;102141.22;;;9.17;100.00
77159;BME280;66129;45.890;13.714;2023-12-28T12:05:42;102126.56;;;9.13;100.00
77159;BME280;66129;45.890;13.714;2023-12-28T12:08:09;102131.72;;;9.15;100.00
77159;BME280;66129;45.890;13.714;2023-12-28T12:10:41;102128.38;;;9.16;100.00
77159;BME280;66129;45.890;13.714;2023-12-28T12:13:08;102123.19;;;9.14;100.00
77159;BME280;66129;45.890;13.714;2023-12-28T12:15:33;102119.00;;;9.16;100.00
77159;BME280;66129;45.890;13.714;2023-12-28T12:18:00;102114.81;;;9.18;100.00
77159;BME280;66129;45.890;13.714;2023-12-28T12:20:26;102115.56;;;9.16;100.00
77159;BME280;66129;45.890;13.714;2023-12-28T12:22:57;102108.75;;;9.16;100.00
77159;BME280;66129;45.890;13.714;2023-12-28T12:25:23;102106.28;;;9.18;100.00
77159;BME280;66129;45.890;13.714;2023-12-28T12:27:48;102109.94;;;9.23;100.00
77159;BME280;66129;45.890;13.714;2023-12-28T12:30:14;102104.03;;;9.24;100.00
77159;BME280;66129;45.890;13.714;2023-12-28T12:32:40;102103.22;;;9.25;100.00
77159;BME280;66129;45.890;13.714;2023-12-28T12:35:09;102095.53;;;9.25;100.00
77159;BME280;66129;45.890;13.714;2023-12-28T12:37:35;102105.22;;;9.32;100.00
77159;BME280;66129;45.890;13.714;2023-12-28T12:40:02;102096.75;;;9.33;100.00
77159;BME280;66129;45.890;13.714;2023-12-28T12:42:27;102093.31;;;9.32;100.00
77159;BME280;66129;45.890;13.714;2023-12-28T12:44:53;102087.44;;;9.35;100.00
77159;BME280;66129;45.890;13.714;2023-12-28T12:47:18;102082.13;;;9.30;100.00
77159;BME280;66129;45.890;13.714;2023-12-28T12:49:44;102089.28;;;9.37;100.00